Ash Township, Michigan
Current Conditions -  °F | °C
As of 5:33 AM on Thursday 23 Oct 2014 (Local Time) from KTTF Reporting Station
Haze Haze  
Wind Chill:   Ceiling: Unl
Heat Index:   Visibility: 2.5mi
Dew Point:   Wind: 0mph
Humidity: 100%   Direction: NA
Pressure: 30.24"   Gusts: NA
Location:  42.051°N, 83.409°W
Report Text: KTTF 230933Z AUTO 00000KT 2 1/2SM BR CLR 01/01 A3024 RMK AO2
Loading
Personal Weather Stations






























Interactive Weather Map
Tropical Storm Tracking
New forecast layout! Learn more

10-Day Weather Forecast

Advertisements
Track Severe Weather on mobile